Time;durP1;ratioP1;P1;durP2;ratioP2;P2;SDS_P1;SDS_P2;PMS_P1;PMS_P2;Temp;Humidity;BMP_temperature;BMP_pressure;BME280_temperature;BME280_humidity;BME280_pressure;Samples;Min_cycle;Max_cycle;Signal;HPM_P1;HPM_P2
2021/12/18 00:01:43;;;;;;;22.85;13.52;;;14.70;71.40;;;;;;5124860;27;47274;-76
2021/12/18 00:04:10;;;;;;;24.75;13.98;;;14.80;70.90;;;;;;5119744;27;45420;-76
2021/12/18 00:06:36;;;;;;;21.45;12.98;;;14.90;70.70;;;;;;5121758;27;45341;-76
2021/12/18 00:09:06;;;;;;;23.98;13.18;;;15.00;70.50;;;;;;5121870;27;45376;-75
2021/12/18 00:11:33;;;;;;;18.00;11.57;;;15.00;70.20;;;;;;5120412;27;46594;-75
2021/12/18 00:14:00;;;;;;;23.33;13.55;;;15.10;70.00;;;;;;5128069;27;45171;-75
2021/12/18 00:16:27;;;;;;;22.55;13.82;;;15.00;70.30;;;;;;5129727;27;45266;-75
2021/12/18 00:18:56;;;;;;;23.15;14.23;;;14.90;70.00;;;;;;5123617;27;45507;-75
2021/12/18 00:21:24;;;;;;;24.17;14.10;;;14.70;70.60;;;;;;5128261;27;48363;-75
2021/12/18 00:23:51;;;;;;;25.30;14.90;;;14.90;70.60;;;;;;5125801;27;45298;-75
2021/12/18 00:26:20;;;;;;;26.40;15.18;;;14.90;70.50;;;;;;5129165;27;45120;-75
2021/12/18 00:28:48;;;;;;;25.80;15.13;;;14.80;70.10;;;;;;5126121;27;45332;-75
2021/12/18 00:31:15;;;;;;;28.35;15.45;;;14.30;71.40;;;;;;5126351;27;47610;-75
2021/12/18 00:33:42;;;;;;;26.30;14.30;;;14.10;72.20;;;;;;5124048;27;45211;-76
2021/12/18 00:36:09;;;;;;;22.52;14.07;;;14.40;72.30;;;;;;5128302;27;45292;-76
2021/12/18 00:38:36;;;;;;;25.38;14.80;;;14.70;70.60;;;;;;5121218;27;45361;-76
2021/12/18 00:41:16;;;;;;;26.30;14.50;;;14.90;69.70;;;;;;5129747;27;45472;-76
2021/12/18 00:44:03;;;;;;;24.02;13.57;;;14.80;70.00;;;;;;5121055;27;45275;-76
2021/12/18 00:46:31;;;;;;;25.05;14.40;;;14.90;70.30;;;;;;5129826;27;45245;-76
2021/12/18 00:48:58;;;;;;;22.70;14.63;;;14.90;69.90;;;;;;5128000;27;45384;-76
2021/12/18 00:51:25;;;;;;;23.80;14.52;;;14.90;69.70;;;;;;5130196;27;46741;-76
2021/12/18 00:53:52;;;;;;;21.42;12.30;;;15.00;69.30;;;;;;5128512;27;45129;-76
2021/12/18 00:56:19;;;;;;;28.17;15.25;;;15.00;69.30;;;;;;5128939;27;45316;-76
2021/12/18 00:58:49;;;;;;;24.50;14.77;;;15.00;68.90;;;;;;5126850;27;45452;-76
2021/12/18 01:01:16;;;;;;;25.33;14.40;;;15.00;69.30;;;;;;5129272;27;47683;-76
2021/12/18 01:03:44;;;;;;;23.35;13.82;;;15.00;69.40;;;;;;5129518;27;45171;-75
2021/12/18 01:06:11;;;;;;;25.00;14.73;;;14.90;69.50;;;;;;5128314;27;45330;-75
2021/12/18 01:08:38;;;;;;;24.30;14.38;;;14.80;70.10;;;;;;5127020;27;45480;-75
2021/12/18 01:14:12;;;;;;;21.73;12.98;;;14.80;70.00;;;;;;5107451;27;45216;-75
2021/12/18 01:16:47;;;;;;;21.77;13.80;;;14.90;70.10;;;;;;5128094;27;45331;-75
2021/12/18 01:24:43;;;;;;;19.17;12.52;;;14.90;69.70;;;;;;5123963;27;45218;-75
2021/12/18 01:27:09;;;;;;;20.33;12.00;;;15.00;69.80;;;;;;5127368;27;45188;-76
2021/12/18 01:29:38;;;;;;;24.38;11.77;;;15.00;70.00;;;;;;5114309;27;45224;-76
2021/12/18 01:32:05;;;;;;;18.98;11.70;;;15.00;70.10;;;;;;5125657;27;46502;-76
2021/12/18 01:34:32;;;;;;;19.85;11.48;;;14.90;70.10;;;;;;5126111;27;45125;-76
2021/12/18 01:36:59;;;;;;;19.45;11.13;;;15.00;70.30;;;;;;5125812;27;45260;-76
2021/12/18 01:39:26;;;;;;;18.70;10.98;;;15.10;69.80;;;;;;5125919;27;45304;-75
2021/12/18 01:42:10;;;;;;;19.30;10.73;;;15.10;70.00;;;;;;5129054;27;45403;-75
2021/12/18 01:44:57;;;;;;;18.80;10.63;;;15.10;69.60;;;;;;5127063;27;45297;-75
2021/12/18 01:52:55;;;;;;;16.77;9.93;;;15.20;69.40;;;;;;5126826;27;45424;-75
2021/12/18 01:55:26;;;;;;;18.92;10.38;;;15.00;70.00;;;;;;5127666;27;45166;-75
2021/12/18 01:57:53;;;;;;;16.77;9.43;;;14.90;70.60;;;;;;5124064;27;45348;-75
2021/12/18 02:00:25;;;;;;;15.55;8.73;;;14.90;70.40;;;;;;5126863;27;45249;-75
2021/12/18 02:02:52;;;;;;;17.67;10.18;;;15.00;70.00;;;;;;5126973;27;47863;-75
2021/12/18 02:05:19;;;;;;;20.05;10.23;;;14.90;70.20;;;;;;5128329;27;45372;-76
2021/12/18 02:07:46;;;;;;;20.92;10.88;;;14.90;70.60;;;;;;5128784;27;45215;-76
2021/12/18 02:10:18;;;;;;;19.27;10.52;;;15.00;70.40;;;;;;5128048;27;45369;-76
2021/12/18 02:12:52;;;;;;;19.10;11.00;;;15.00;70.30;;;;;;5113660;27;45254;-75
2021/12/18 02:20:54;;;;;;;25.13;12.05;;;14.70;71.20;;;;;;5128752;27;45277;-75
2021/12/18 02:23:21;;;;;;;20.80;11.45;;;14.80;70.90;;;;;;5126235;27;48023;-75
2021/12/18 02:25:48;;;;;;;21.50;11.57;;;15.00;70.40;;;;;;5128849;27;45545;-75
2021/12/18 02:28:20;;;;;;;21.65;11.52;;;15.00;70.50;;;;;;5127036;27;45229;-75
2021/12/18 02:30:49;;;;;;;24.17;12.80;;;15.10;70.10;;;;;;5127358;27;46350;-75
2021/12/18 02:33:16;;;;;;;21.88;11.98;;;15.00;70.00;;;;;;5128219;27;45973;-75
2021/12/18 02:35:47;;;;;;;24.13;11.65;;;14.60;71.80;;;;;;5128387;27;45195;-75
2021/12/18 02:38:20;;;;;;;21.50;11.68;;;14.90;71.10;;;;;;5125766;27;45332;-75
2021/12/18 02:40:59;;;;;;;24.10;12.55;;;15.00;70.80;;;;;;5123619;27;45363;-75
2021/12/18 02:43:27;;;;;;;24.83;12.60;;;15.10;70.50;;;;;;5125654;27;47053;-75
2021/12/18 02:45:58;;;;;;;21.58;12.40;;;15.10;70.50;;;;;;5127069;27;45196;-75
2021/12/18 02:48:26;;;;;;;31.75;14.05;;;15.00;70.70;;;;;;5119514;27;45541;-75
2021/12/18 02:50:53;;;;;;;26.58;13.40;;;15.10;70.40;;;;;;5127208;27;45351;-75
2021/12/18 02:53:21;;;;;;;24.45;12.20;;;15.20;70.10;;;;;;5125497;27;47868;-75
2021/12/18 02:55:56;;;;;;;26.17;12.35;;;15.10;70.30;;;;;;5126919;27;45389;-75
2021/12/18 02:58:23;;;;;;;21.92;12.25;;;15.10;70.70;;;;;;5120968;27;45318;-75
2021/12/18 03:00:51;;;;;;;24.73;12.18;;;15.00;70.60;;;;;;5122552;27;45329;-75
2021/12/18 03:03:19;;;;;;;23.88;11.98;;;15.00;70.80;;;;;;5120169;27;46437;-75
2021/12/18 03:05:55;;;;;;;22.80;12.00;;;15.00;70.90;;;;;;5131193;27;45253;-75
2021/12/18 03:08:36;;;;;;;20.92;11.27;;;15.00;71.10;;;;;;5131402;27;45184;-75
2021/12/18 03:25:00;;;;;;;20.30;10.93;;;15.10;71.10;;;;;;5116070;27;46584;-75
2021/12/18 03:27:27;;;;;;;20.30;10.43;;;15.00;71.50;;;;;;5122851;27;45371;-75
2021/12/18 03:29:55;;;;;;;22.00;11.90;;;15.00;71.30;;;;;;5117907;27;45357;-75
2021/12/18 03:32:22;;;;;;;22.55;11.95;;;15.10;71.10;;;;;;5129664;27;45180;-75
2021/12/18 03:34:50;;;;;;;20.50;11.13;;;15.10;70.80;;;;;;5128442;27;48265;-75
2021/12/18 03:37:17;;;;;;;22.88;11.63;;;15.00;71.20;;;;;;5129095;27;45444;-75
2021/12/18 03:39:45;;;;;;;22.40;11.55;;;15.10;71.00;;;;;;5124565;27;45441;-75
2021/12/18 03:42:14;;;;;;;22.70;11.27;;;14.90;71.70;;;;;;5129759;27;45338;-75
2021/12/18 03:44:41;;;;;;;21.73;10.55;;;15.00;71.70;;;;;;5128342;27;45293;-75
2021/12/18 03:47:08;;;;;;;20.98;11.10;;;15.00;71.20;;;;;;5124762;27;45694;-75
2021/12/18 03:49:35;;;;;;;17.80;10.00;;;15.10;71.00;;;;;;5117035;27;45285;-75
2021/12/18 03:52:03;;;;;;;21.40;11.00;;;15.10;71.20;;;;;;5130474;27;45381;-75
2021/12/18 03:54:29;;;;;;;20.92;11.82;;;15.10;71.10;;;;;;5127405;27;47690;-75
2021/12/18 03:56:56;;;;;;;21.90;11.25;;;15.10;71.00;;;;;;5127277;27;45321;-75
2021/12/18 03:59:25;;;;;;;18.15;10.52;;;15.10;70.90;;;;;;5115094;27;45262;-75
2021/12/18 04:01:52;;;;;;;22.05;10.98;;;15.10;70.80;;;;;;5120820;27;45485;-75
2021/12/18 04:04:18;;;;;;;21.65;11.02;;;15.10;70.70;;;;;;5125016;27;47444;-75
2021/12/18 04:06:46;;;;;;;18.77;10.73;;;15.10;70.70;;;;;;5129496;27;45250;-75
2021/12/18 04:09:13;;;;;;;18.40;10.05;;;15.10;70.60;;;;;;5126525;27;45482;-76
2021/12/18 04:11:40;;;;;;;19.35;10.52;;;15.10;70.70;;;;;;5125117;27;45482;-76
2021/12/18 04:14:07;;;;;;;20.15;10.15;;;14.90;71.20;;;;;;5130197;27;45473;-75
2021/12/18 04:16:36;;;;;;;16.95;9.63;;;14.90;71.20;;;;;;5124465;27;47211;-75
2021/12/18 04:19:03;;;;;;;18.70;9.93;;;14.90;71.20;;;;;;5128632;27;45647;-75
2021/12/18 04:21:30;;;;;;;20.52;10.55;;;14.80;72.00;;;;;;5124473;27;45193;-75
2021/12/18 04:23:58;;;;;;;19.98;10.38;;;14.90;71.80;;;;;;5124660;27;47495;-75
2021/12/18 04:26:25;;;;;;;19.90;10.73;;;15.00;71.20;;;;;;5119603;27;45344;-75
2021/12/18 04:28:52;;;;;;;20.50;10.95;;;15.10;71.20;;;;;;5129199;27;45239;-75
2021/12/18 04:31:19;;;;;;;20.05;10.63;;;15.10;71.20;;;;;;5129203;27;45306;-75
2021/12/18 04:33:47;;;;;;;19.65;10.82;;;14.90;71.50;;;;;;5127989;27;46603;-75
2021/12/18 04:36:14;;;;;;;21.05;10.35;;;15.00;71.60;;;;;;5124242;27;45879;-75
2021/12/18 04:38:41;;;;;;;25.15;11.50;;;14.90;71.60;;;;;;5129566;27;45215;-75
2021/12/18 04:41:10;;;;;;;20.40;10.60;;;15.00;71.50;;;;;;5128552;27;45218;-75
2021/12/18 04:43:37;;;;;;;19.88;10.82;;;15.10;71.40;;;;;;5128324;27;46290;-75
2021/12/18 04:46:04;;;;;;;21.35;10.77;;;15.10;71.20;;;;;;5128859;27;45165;-75
2021/12/18 04:48:31;;;;;;;21.52;11.73;;;15.00;71.20;;;;;;5126005;27;45188;-75
2021/12/18 04:50:59;;;;;;;21.30;10.38;;;15.00;71.50;;;;;;5128606;27;45247;-75
2021/12/18 04:53:26;;;;;;;21.17;10.77;;;14.90;71.60;;;;;;5128125;27;46480;-75
2021/12/18 04:55:53;;;;;;;20.25;10.85;;;14.90;72.10;;;;;;5129302;27;45180;-75
2021/12/18 04:58:20;;;;;;;16.67;10.15;;;14.90;72.20;;;;;;5123892;27;45278;-75
2021/12/18 05:00:47;;;;;;;19.60;10.80;;;14.90;71.70;;;;;;5122831;27;45361;-75
2021/12/18 05:03:17;;;;;;;17.17;8.95;;;15.00;71.60;;;;;;5125145;27;47281;-75
2021/12/18 05:05:45;;;;;;;17.77;9.95;;;15.10;71.40;;;;;;5122765;27;45364;-75
2021/12/18 05:08:13;;;;;;;18.02;9.50;;;15.10;71.20;;;;;;5122598;27;45217;-75
2021/12/18 05:10:40;;;;;;;17.98;9.93;;;14.90;71.80;;;;;;5122478;27;45266;-75
2021/12/18 05:13:07;;;;;;;16.85;10.13;;;14.70;73.50;;;;;;5123119;27;46777;-75
2021/12/18 05:18:05;;;;;;;17.85;10.00;;;14.80;73.30;;;;;;5100588;27;45418;-74
2021/12/18 05:20:32;;;;;;;17.10;9.20;;;14.80;73.30;;;;;;5107300;27;45359;-74
2021/12/18 05:22:59;;;;;;;12.95;8.45;;;14.90;73.00;;;;;;5101911;27;47422;-74
2021/12/18 05:25:27;;;;;;;18.92;9.18;;;14.90;73.10;;;;;;5106987;27;45198;-74
2021/12/18 05:27:54;;;;;;;15.43;9.05;;;14.90;73.80;;;;;;5108836;27;45373;-74
2021/12/18 05:30:21;;;;;;;15.82;8.27;;;14.90;73.80;;;;;;5106253;27;45265;-75
2021/12/18 05:32:48;;;;;;;17.55;9.05;;;15.00;72.80;;;;;;5107158;27;47314;-75
2021/12/18 05:35:16;;;;;;;17.42;8.85;;;15.00;73.30;;;;;;5107347;27;45327;-75
2021/12/18 05:37:48;;;;;;;15.23;8.90;;;14.90;72.70;;;;;;5106883;27;45324;-75
2021/12/18 05:40:18;;;;;;;16.15;9.02;;;14.90;73.80;;;;;;5104423;27;45248;-75
2021/12/18 05:42:47;;;;;;;12.50;7.88;;;14.90;73.80;;;;;;5107904;27;46486;-75
2021/12/18 05:45:14;;;;;;;16.42;8.82;;;14.90;73.80;;;;;;5106893;27;45589;-75
2021/12/18 05:47:43;;;;;;;15.70;9.32;;;14.80;73.70;;;;;;5108380;27;45260;-75
2021/12/18 05:50:11;;;;;;;15.85;8.57;;;14.70;74.00;;;;;;5108604;27;45415;-75
2021/12/18 05:52:38;;;;;;;14.60;8.43;;;14.80;73.70;;;;;;5106601;27;46448;-75
2021/12/18 05:55:06;;;;;;;16.52;9.07;;;14.60;74.70;;;;;;5106529;27;45102;-75
2021/12/18 05:57:33;;;;;;;15.55;8.65;;;14.70;74.50;;;;;;5106866;27;45374;-75
2021/12/18 06:00:01;;;;;;;13.73;8.55;;;14.80;74.00;;;;;;5109096;27;45370;-75
2021/12/18 06:02:28;;;;;;;17.35;9.07;;;14.90;73.80;;;;;;5102849;27;47405;-75
2021/12/18 06:04:54;;;;;;;14.00;8.43;;;14.80;74.50;;;;;;5107709;27;45242;-75
2021/12/18 06:07:30;;;;;;;18.20;8.73;;;14.80;74.60;;;;;;5105789;27;45261;-75
2021/12/18 06:09:57;;;;;;;17.17;8.77;;;14.80;73.70;;;;;;5105024;27;45466;-75
2021/12/18 06:12:24;;;;;;;15.60;8.63;;;14.70;73.60;;;;;;5098436;27;46497;-75
2021/12/18 06:14:51;;;;;;;15.05;7.97;;;14.80;73.90;;;;;;5098854;27;45308;-76
2021/12/18 06:17:20;;;;;;;15.77;8.25;;;14.90;73.80;;;;;;5106438;27;45363;-76
2021/12/18 06:19:47;;;;;;;15.52;8.45;;;14.70;74.70;;;;;;5106384;27;45299;-75
2021/12/18 06:22:14;;;;;;;12.93;7.85;;;14.90;74.00;;;;;;5101680;27;47090;-75
2021/12/18 06:24:40;;;;;;;17.42;8.15;;;14.90;73.90;;;;;;5100283;27;45390;-75
2021/12/18 06:27:07;;;;;;;15.90;7.85;;;14.80;74.70;;;;;;5108184;27;45376;-75
2021/12/18 06:29:34;;;;;;;16.63;8.50;;;14.70;75.00;;;;;;5106773;27;45105;-75
2021/12/18 06:32:01;;;;;;;17.95;8.57;;;14.60;75.20;;;;;;5107869;27;45309;-75
2021/12/18 06:34:29;;;;;;;14.90;7.68;;;14.60;75.70;;;;;;5106232;27;45142;-75
2021/12/18 06:36:56;;;;;;;17.45;8.57;;;14.50;76.50;;;;;;5110940;27;45463;-75
2021/12/18 06:39:23;;;;;;;17.75;8.70;;;14.30;77.60;;;;;;5109216;27;45140;-76
2021/12/18 06:41:50;;;;;;;15.02;8.57;;;14.30;77.70;;;;;;5097789;27;45315;-76
2021/12/18 06:44:17;;;;;;;15.10;8.27;;;14.40;77.20;;;;;;5107160;27;45206;-75
2021/12/18 06:46:44;;;;;;;16.13;8.15;;;14.60;76.40;;;;;;5103261;27;45291;-75
2021/12/18 06:49:11;;;;;;;14.90;8.23;;;14.40;77.00;;;;;;5097801;27;45215;-75
2021/12/18 06:51:39;;;;;;;18.58;8.57;;;14.40;77.40;;;;;;5092823;27;45466;-75
2021/12/18 06:54:06;;;;;;;17.80;9.25;;;14.60;77.00;;;;;;5100270;27;45326;-75
2021/12/18 06:56:33;;;;;;;15.10;8.82;;;14.60;78.00;;;;;;5100492;27;45176;-75
2021/12/18 06:59:00;;;;;;;15.27;8.32;;;14.60;77.00;;;;;;5101999;27;45172;-75
2021/12/18 07:01:27;;;;;;;15.68;8.48;;;14.60;76.70;;;;;;5109968;27;47471;-75
2021/12/18 07:03:54;;;;;;;14.45;8.75;;;14.40;77.70;;;;;;5107074;27;45957;-75
2021/12/18 07:06:21;;;;;;;17.73;9.48;;;14.70;76.50;;;;;;5111299;27;45198;-75
2021/12/18 07:08:49;;;;;;;16.88;8.52;;;14.70;76.20;;;;;;5104822;27;45455;-75
2021/12/18 07:11:16;;;;;;;16.25;8.93;;;14.80;76.50;;;;;;5106514;27;46180;-75
2021/12/18 07:13:43;;;;;;;17.52;9.30;;;14.70;76.60;;;;;;5107227;27;45274;-76
2021/12/18 07:16:09;;;;;;;20.83;10.25;;;14.70;76.20;;;;;;5108341;27;45163;-75
2021/12/18 07:18:36;;;;;;;17.85;9.82;;;14.80;76.30;;;;;;5097166;27;45337;-75
2021/12/18 07:21:03;;;;;;;17.27;9.48;;;14.80;75.80;;;;;;5110651;27;47373;-75
2021/12/18 07:23:30;;;;;;;19.60;10.60;;;14.80;76.20;;;;;;5095018;27;45264;-75
2021/12/18 07:25:58;;;;;;;18.20;10.48;;;14.80;76.00;;;;;;5109612;27;45241;-75
2021/12/18 07:28:25;;;;;;;20.05;11.60;;;14.80;75.90;;;;;;5110496;27;45406;-75
2021/12/18 07:30:52;;;;;;;18.95;10.40;;;14.50;77.10;;;;;;5105636;27;47034;-76
2021/12/18 07:33:18;;;;;;;18.05;10.25;;;14.50;77.50;;;;;;5099027;27;45215;-76
2021/12/18 07:35:45;;;;;;;22.27;11.32;;;14.40;78.00;;;;;;5106080;27;45233;-75
2021/12/18 07:38:13;;;;;;;21.95;11.00;;;14.40;78.20;;;;;;5106002;27;45336;-75
2021/12/18 07:40:40;;;;;;;21.23;11.07;;;14.40;78.40;;;;;;5093326;27;47355;-75
2021/12/18 07:43:09;;;;;;;19.70;11.57;;;14.50;77.50;;;;;;5090055;28;45120;-76
2021/12/18 07:45:36;;;;;;;22.95;11.65;;;14.60;77.40;;;;;;5096757;27;45224;-75
2021/12/18 07:48:03;;;;;;;20.90;11.38;;;14.60;77.40;;;;;;5107648;27;45400;-75
2021/12/18 07:50:31;;;;;;;24.27;12.60;;;14.70;76.70;;;;;;5108556;27;47873;-75
2021/12/18 07:52:58;;;;;;;23.60;12.70;;;14.80;75.90;;;;;;5107766;27;46261;-75
2021/12/18 07:55:25;;;;;;;26.42;12.82;;;14.60;75.40;;;;;;5107594;27;46148;-74
2021/12/18 07:57:53;;;;;;;22.05;12.27;;;14.50;75.70;;;;;;5109654;27;45392;-75
2021/12/18 08:00:22;;;;;;;26.63;12.80;;;14.70;74.70;;;;;;5103153;27;47553;-75
2021/12/18 08:02:49;;;;;;;24.25;11.77;;;14.70;78.70;;;;;;5109791;27;45236;-75
2021/12/18 08:05:16;;;;;;;23.63;12.70;;;14.80;76.60;;;;;;5097803;27;45218;-73
2021/12/18 08:07:44;;;;;;;21.20;12.50;;;14.80;75.40;;;;;;5100988;27;45387;-75
2021/12/18 08:10:11;;;;;;;25.40;12.55;;;14.70;75.90;;;;;;5102167;27;46165;-75
2021/12/18 08:12:38;;;;;;;20.85;11.07;;;14.70;76.80;;;;;;5107760;27;45343;-76
2021/12/18 08:15:07;;;;;;;25.20;13.13;;;14.70;77.10;;;;;;5107911;27;45167;-75
2021/12/18 08:17:36;;;;;;;24.90;13.20;;;14.70;76.60;;;;;;5095308;27;45560;-75
2021/12/18 08:20:03;;;;;;;27.38;13.25;;;14.70;76.90;;;;;;5100741;27;47761;-74
2021/12/18 08:22:30;;;;;;;26.30;13.98;;;14.60;77.10;;;;;;5108759;27;45234;-74
2021/12/18 08:24:56;;;;;;;26.65;12.98;;;14.80;76.00;;;;;;5107338;27;45195;-74
2021/12/18 08:27:23;;;;;;;23.83;12.60;;;14.80;75.90;;;;;;5109805;27;45254;-76
2021/12/18 08:29:50;;;;;;;42.47;14.57;;;14.90;75.90;;;;;;5109281;27;45263;-70
2021/12/18 08:32:17;;;;;;;32.67;13.45;;;14.60;77.80;;;;;;5102702;27;46422;-75
2021/12/18 08:34:45;;;;;;;32.80;13.63;;;14.70;77.90;;;;;;5108278;27;45170;-74
2021/12/18 08:37:12;;;;;;;24.15;12.77;;;14.80;77.00;;;;;;5109604;27;45311;-74
2021/12/18 08:39:39;;;;;;;24.20;12.48;;;14.80;76.50;;;;;;5109484;27;47152;-74
2021/12/18 08:42:07;;;;;;;27.25;12.85;;;14.80;76.60;;;;;;5108566;27;45355;-74
2021/12/18 08:44:34;;;;;;;25.15;12.57;;;14.80;76.90;;;;;;5095627;27;45210;-74
2021/12/18 08:47:01;;;;;;;25.88;13.27;;;14.80;77.00;;;;;;5103879;27;45174;-74
2021/12/18 08:49:29;;;;;;;25.52;13.05;;;14.70;77.10;;;;;;5107016;27;45504;-74
2021/12/18 08:51:57;;;;;;;23.33;11.88;;;14.70;77.70;;;;;;5109617;27;45600;-74
2021/12/18 08:54:24;;;;;;;25.85;12.85;;;14.90;76.90;;;;;;5108186;27;45344;-75
2021/12/18 08:56:51;;;;;;;27.65;13.05;;;14.80;77.00;;;;;;5091832;27;45522;-75
2021/12/18 08:59:18;;;;;;;31.80;13.93;;;14.80;77.40;;;;;;5102244;27;47145;-75
2021/12/18 09:01:45;;;;;;;23.92;12.15;;;14.90;77.10;;;;;;5107333;27;45146;-75
2021/12/18 09:04:12;;;;;;;27.60;13.52;;;14.90;76.90;;;;;;5105487;27;45236;-75
2021/12/18 09:06:39;;;;;;;26.13;13.55;;;15.00;76.90;;;;;;5109798;27;45180;-75
2021/12/18 09:09:07;;;;;;;20.27;11.40;;;14.90;77.00;;;;;;5095730;27;46448;-75
2021/12/18 09:11:34;;;;;;;24.98;12.35;;;14.80;76.60;;;;;;5093708;27;45523;-75
2021/12/18 09:14:02;;;;;;;23.35;12.00;;;14.80;77.60;;;;;;5106341;27;45296;-75
2021/12/18 09:16:29;;;;;;;25.27;11.55;;;14.80;78.10;;;;;;5104626;27;45351;-75
2021/12/18 09:18:56;;;;;;;25.88;12.18;;;14.80;78.50;;;;;;5105015;27;46627;-75
2021/12/18 09:21:23;;;;;;;22.65;11.95;;;14.70;78.90;;;;;;5109205;27;45305;-75
2021/12/18 09:23:50;;;;;;;26.50;12.90;;;14.80;77.80;;;;;;5107139;27;45295;-75
2021/12/18 09:26:18;;;;;;;21.55;10.93;;;15.00;77.30;;;;;;5107474;27;45376;-75
2021/12/18 09:28:45;;;;;;;21.95;11.38;;;14.90;77.50;;;;;;5106886;27;46538;-75
2021/12/18 09:31:12;;;;;;;20.83;11.38;;;14.80;78.40;;;;;;5106568;27;45808;-75
2021/12/18 09:33:38;;;;;;;25.38;11.95;;;14.80;77.80;;;;;;5108076;27;45228;-75
2021/12/18 09:36:06;;;;;;;26.52;11.55;;;14.80;78.20;;;;;;5107146;27;45224;-75
2021/12/18 09:38:33;;;;;;;22.50;10.55;;;14.80;78.20;;;;;;5104963;27;47536;-75
2021/12/18 09:41:00;;;;;;;21.63;10.85;;;14.80;78.40;;;;;;5107003;27;45302;-75
2021/12/18 09:43:29;;;;;;;19.90;10.55;;;14.80;77.60;;;;;;5104319;27;45508;-75
2021/12/18 09:46:02;;;;;;;20.20;10.40;;;14.80;78.30;;;;;;5106801;27;45500;-75
2021/12/18 09:48:30;;;;;;;19.92;10.60;;;14.70;79.30;;;;;;5104650;27;46872;-75
2021/12/18 09:50:58;;;;;;;16.65;9.93;;;14.80;79.10;;;;;;5096507;27;45611;-76
2021/12/18 09:53:25;;;;;;;20.55;10.07;;;14.80;78.80;;;;;;5104167;27;45317;-76
2021/12/18 09:55:52;;;;;;;17.80;9.98;;;14.80;79.10;;;;;;5103830;27;45927;-76
2021/12/18 09:58:19;;;;;;;21.90;10.13;;;14.90;78.60;;;;;;5096428;27;48640;-76
2021/12/18 10:00:48;;;;;;;21.27;10.43;;;15.00;78.20;;;;;;5105739;27;46089;-76
2021/12/18 10:03:15;;;;;;;17.90;9.88;;;15.00;78.30;;;;;;5093947;27;45163;-76
2021/12/18 10:05:42;;;;;;;18.85;9.00;;;15.00;78.00;;;;;;5107865;27;45532;-77
2021/12/18 10:08:12;;;;;;;19.52;10.05;;;14.90;78.10;;;;;;5104939;27;46193;-77
2021/12/18 10:10:58;;;;;;;18.27;9.93;;;15.00;78.20;;;;;;5108353;27;45589;-77
2021/12/18 10:13:25;;;;;;;28.58;10.88;;;15.00;77.80;;;;;;5103931;27;45392;-74
2021/12/18 10:18:50;;;;;;;22.55;10.35;;;14.90;79.20;;;;;;5139285;27;45522;-75
2021/12/18 10:21:19;;;;;;;24.13;11.35;;;15.00;77.50;;;;;;5116163;27;45487;-75
2021/12/18 10:23:48;;;;;;;25.58;12.05;;;14.90;78.70;;;;;;5121744;27;45202;-75
2021/12/18 10:26:39;;;;;;;19.92;10.18;;;14.90;78.60;;;;;;5116979;27;45628;-75
2021/12/18 10:29:22;;;;;;;19.10;9.32;;;15.10;77.40;;;;;;5118864;27;46593;-74
2021/12/18 10:31:49;;;;;;;17.23;9.52;;;14.90;77.80;;;;;;5116811;27;45578;-74
2021/12/18 10:34:23;;;;;;;18.77;9.07;;;14.90;78.80;;;;;;5114927;27;45318;-74
2021/12/18 10:37:19;;;;;;;20.55;9.15;;;14.90;78.60;;;;;;5120031;27;45381;-73
2021/12/18 10:39:58;;;;;;;29.25;10.85;;;15.10;78.90;;;;;;5104962;27;46454;-72
2021/12/18 10:42:29;;;;;;;39.60;9.18;;;14.80;80.80;;;;;;5107099;27;45259;-72
2021/12/18 10:45:02;;;;;;;23.00;9.65;;;14.90;82.50;;;;;;5119201;27;45302;-72
2021/12/18 10:47:44;;;;;;;24.45;9.55;;;15.00;79.70;;;;;;5111542;27;45314;-72
2021/12/18 10:50:22;;;;;;;20.20;8.88;;;14.70;83.80;;;;;;5108263;27;46231;-73
2021/12/18 10:53:02;;;;;;;22.98;9.57;;;14.60;84.10;;;;;;5111598;27;45289;-72
2021/12/18 10:55:46;;;;;;;16.58;7.82;;;15.00;82.90;;;;;;5113306;27;45179;-73
2021/12/18 10:58:15;;;;;;;16.92;8.38;;;14.90;82.20;;;;;;5110978;27;45325;-73
2021/12/18 11:00:47;;;;;;;15.82;8.07;;;14.50;86.70;;;;;;5120972;27;45488;-73
2021/12/18 11:03:16;;;;;;;18.48;9.95;;;14.20;88.90;;;;;;5119501;27;45302;-73
2021/12/18 11:06:01;;;;;;;17.20;8.65;;;14.00;90.00;;;;;;5106021;27;45693;-73
2021/12/18 11:08:27;;;;;;;17.45;9.25;;;14.50;86.60;;;;;;5115528;27;45521;-74
2021/12/18 11:13:38;;;;;;;15.07;7.90;;;14.80;86.80;;;;;;5118733;27;45449;-73
2021/12/18 11:13:48;;;;;;;13.80;6.85;;;14.90;84.80;;;;;;5110685;27;45432;-73
2021/12/18 11:16:16;;;;;;;15.65;7.78;;;14.50;84.60;;;;;;5117478;27;45298;-73
2021/12/18 11:18:43;;;;;;;14.60;7.63;;;14.30;86.10;;;;;;5115057;27;45396;-72
2021/12/18 11:21:11;;;;;;;15.85;8.02;;;14.10;87.70;;;;;;5112516;27;47991;-72
2021/12/18 11:23:43;;;;;;;14.35;8.05;;;14.00;87.60;;;;;;5112256;27;45240;-73
2021/12/18 11:26:11;;;;;;;19.30;8.48;;;14.20;89.90;;;;;;5116057;27;45250;-73
2021/12/18 11:28:44;;;;;;;14.50;7.68;;;14.70;85.10;;;;;;5114519;27;45406;-73
2021/12/18 11:31:11;;;;;;;16.30;9.05;;;14.70;86.50;;;;;;5096468;27;45975;-73
2021/12/18 11:33:39;;;;;;;17.30;8.48;;;14.50;85.40;;;;;;5097100;27;45346;-73
2021/12/18 11:36:08;;;;;;;15.57;8.48;;;14.50;88.60;;;;;;5100135;27;45354;-73
2021/12/18 11:38:41;;;;;;;15.50;8.57;;;14.70;87.60;;;;;;5099110;27;45445;-73
2021/12/18 11:41:14;;;;;;;18.40;9.40;;;14.90;85.20;;;;;;5102524;27;47928;-73
2021/12/18 11:43:46;;;;;;;20.15;10.18;;;14.90;84.70;;;;;;5103767;27;45350;-73
2021/12/18 11:46:32;;;;;;;21.40;9.43;;;14.50;86.40;;;;;;5099290;27;45276;-73
2021/12/18 11:49:01;;;;;;;21.60;8.38;;;14.70;88.20;;;;;;5099465;27;45345;-73
2021/12/18 11:51:28;;;;;;;17.50;8.60;;;15.10;84.40;;;;;;5109020;27;45335;-73
2021/12/18 11:53:57;;;;;;;18.48;9.27;;;14.80;86.80;;;;;;5109426;27;45195;-73
2021/12/18 11:56:24;;;;;;;19.45;9.20;;;14.50;87.00;;;;;;5100172;27;45198;-74
2021/12/18 11:58:52;;;;;;;19.27;9.88;;;14.50;90.10;;;;;;5108146;27;45279;-75
2021/12/18 12:01:21;;;;;;;16.98;8.25;;;14.90;88.50;;;;;;5105757;27;46598;-72
2021/12/18 12:03:56;;;;;;;16.85;9.38;;;14.90;88.30;;;;;;5105910;27;45968;-72
2021/12/18 12:06:30;;;;;;;19.05;9.70;;;14.70;86.80;;;;;;5090003;28;45163;-72
2021/12/18 12:09:24;;;;;;;20.00;9.00;;;14.90;88.20;;;;;;5096578;27;45431;-72
2021/12/18 12:11:54;;;;;;;19.38;10.18;;;14.90;87.50;;;;;;5109114;27;47703;-72
2021/12/18 12:14:22;;;;;;;19.92;9.35;;;14.40;88.80;;;;;;5107617;27;45784;-72
2021/12/18 12:17:11;;;;;;;21.58;9.63;;;14.80;86.40;;;;;;5095319;27;45611;-72
2021/12/18 12:19:57;;;;;;;15.75;8.18;;;14.50;88.10;;;;;;5097256;27;45195;-71
2021/12/18 12:22:52;;;;;;;20.52;9.75;;;14.80;88.90;;;;;;5096285;27;45661;-71
2021/12/18 12:25:35;;;;;;;20.42;9.43;;;14.90;85.90;;;;;;5090662;27;45385;-72
2021/12/18 12:28:05;;;;;;;18.95;9.00;;;14.80;87.80;;;;;;5110160;27;45192;-72
2021/12/18 12:30:38;;;;;;;16.33;7.80;;;14.20;89.60;;;;;;5107725;27;45430;-73
2021/12/18 12:33:10;;;;;;;19.45;9.50;;;14.70;90.00;;;;;;5109217;27;45322;-72
2021/12/18 12:36:03;;;;;;;21.05;9.18;;;14.80;87.70;;;;;;5100328;27;45215;-72
2021/12/18 12:38:32;;;;;;;19.52;10.35;;;14.80;87.70;;;;;;5103725;27;45171;-72
2021/12/18 12:41:33;;;;;;;20.95;9.90;;;14.90;87.30;;;;;;5106952;27;45256;-72
2021/12/18 12:44:03;;;;;;;19.63;9.95;;;14.80;89.40;;;;;;5104281;27;47973;-72
2021/12/18 12:46:31;;;;;;;22.67;10.05;;;14.90;86.60;;;;;;5108970;27;45250;-72
2021/12/18 12:49:04;;;;;;;20.10;9.50;;;14.50;89.60;;;;;;5107640;27;45222;-72
2021/12/18 12:52:11;;;;;;;20.40;10.18;;;14.80;87.70;;;;;;5096513;27;45188;-72
2021/12/18 12:54:58;;;;;;;22.10;10.18;;;15.00;88.40;;;;;;5089563;27;46437;-72
2021/12/18 12:57:39;;;;;;;18.35;9.93;;;14.80;88.70;;;;;;5096908;27;46670;-72
2021/12/18 13:00:58;;;;;;;24.98;11.35;;;14.30;91.00;;;;;;5104193;27;45203;-73
2021/12/18 13:03:33;;;;;;;21.77;10.23;;;13.70;91.00;;;;;;5036939;28;45347;-73
2021/12/18 13:06:09;;;;;;;21.60;9.95;;;13.20;92.50;;;;;;5025552;28;48388;-72
2021/12/18 13:08:39;;;;;;;23.90;10.70;;;13.30;94.20;;;;;;5064202;27;45426;-71
2021/12/18 13:11:07;;;;;;;18.75;10.05;;;13.00;94.60;;;;;;5106309;27;45238;-72
2021/12/18 13:13:36;;;;;;;19.90;9.60;;;13.20;96.70;;;;;;5098998;27;45398;-73
2021/12/18 13:16:09;;;;;;;24.35;11.48;;;14.00;93.80;;;;;;5096199;27;45193;-73
2021/12/18 13:18:39;;;;;;;22.35;9.80;;;14.10;92.00;;;;;;5107111;27;46190;-74
2021/12/18 13:21:09;;;;;;;30.50;13.15;;;13.60;93.60;;;;;;5107537;27;45354;-73
2021/12/18 13:23:45;;;;;;;32.55;12.38;;;13.40;93.50;;;;;;5108940;27;45418;-71